createdAt,value
2019-04-21T07:06:13.165Z,14.09
2019-04-21T07:06:57.782Z,14.11
2019-04-21T07:08:21.671Z,14.17
2019-04-21T07:09:16.262Z,14.34
2019-04-21T07:10:22.070Z,14.36
2019-04-21T07:10:53.339Z,14.52
2019-04-21T07:11:52.662Z,14.69
2019-04-21T07:13:15.290Z,14.59
2019-04-21T07:14:13.601Z,14.80
2019-04-21T07:14:53.040Z,14.91
2019-04-21T07:16:04.534Z,14.83
2019-04-21T07:17:17.891Z,14.97
2019-04-21T07:17:59.943Z,15.22
2019-04-21T07:19:55.955Z,15.41
2019-04-21T07:20:56.421Z,15.38
2019-04-21T07:21:57.459Z,15.44
2019-04-21T07:22:56.838Z,15.52
2019-04-21T07:24:02.010Z,15.44
2019-04-21T07:25:00.317Z,15.49
2019-04-21T07:26:01.021Z,15.73
2019-04-21T07:27:02.620Z,15.89
2019-04-21T07:27:59.313Z,15.95
2019-04-21T07:29:23.657Z,15.93
2019-04-21T07:29:58.263Z,16.14
2019-04-21T07:31:03.621Z,16.23
2019-04-21T07:32:00.284Z,16.37
2019-04-21T07:33:47.726Z,16.50
2019-04-21T07:34:23.846Z,16.69
2019-04-21T07:34:57.645Z,16.62
2019-04-21T07:35:56.890Z,16.75
2019-04-21T07:37:59.088Z,16.80
2019-04-21T07:39:16.886Z,16.88
2019-04-21T07:40:07.744Z,16.92
2019-04-21T07:40:54.701Z,17.00
2019-04-21T07:41:55.295Z,17.12
2019-04-21T07:43:16.674Z,17.15
2019-04-21T07:43:51.749Z,17.14
2019-04-21T07:44:56.379Z,17.25
2019-04-21T07:46:13.009Z,17.22
2019-04-21T07:46:49.035Z,17.30
2019-04-21T07:47:56.549Z,17.25
2019-04-21T07:48:59.865Z,17.47
2019-04-21T07:50:22.760Z,17.58
2019-04-21T07:51:20.944Z,17.65
2019-04-21T07:52:02.984Z,17.76
2019-04-21T07:53:05.129Z,17.77
2019-04-21T07:54:23.756Z,17.89
2019-04-21T07:56:06.268Z,17.91
2019-04-21T07:56:44.228Z,18.02
2019-04-21T07:58:21.328Z,18.07
2019-04-21T07:59:27.224Z,18.20
2019-04-21T08:00:20.594Z,18.35
2019-04-21T08:01:04.774Z,18.53
2019-04-21T08:02:23.390Z,18.50
2019-04-21T08:03:05.864Z,18.64
2019-04-21T08:04:03.894Z,18.64
2019-04-21T08:05:26.491Z,18.68
2019-04-21T08:05:58.947Z,18.79
2019-04-21T08:07:21.980Z,18.91
2019-04-21T08:09:22.926Z,18.91
2019-04-21T08:09:58.713Z,19.01
2019-04-21T08:11:01.704Z,18.89
2019-04-21T08:12:16.243Z,18.90
2019-04-21T08:12:54.329Z,18.93
2019-04-21T08:13:57.812Z,18.96
2019-04-21T08:15:03.178Z,18.96
2019-04-21T08:16:07.689Z,18.91
2019-04-21T08:17:59.630Z,18.97
2019-04-21T08:18:58.056Z,18.86
2019-04-21T08:20:00.575Z,18.83
2019-04-21T08:21:00.772Z,18.79
2019-04-21T08:22:12.555Z,18.87
2019-04-21T08:23:05.957Z,18.87
2019-04-21T08:23:55.283Z,18.79
2019-04-21T08:25:02.957Z,18.72
2019-04-21T08:26:04.737Z,18.60
2019-04-21T08:27:28.300Z,18.59
2019-04-21T08:28:01.467Z,18.66
2019-04-21T08:29:07.722Z,18.74
2019-04-21T08:29:58.183Z,18.75
2019-04-21T08:31:33.981Z,18.71
2019-04-21T08:32:26.544Z,18.87
2019-04-21T08:33:10.914Z,18.96
2019-04-21T08:34:08.422Z,18.91
2019-04-21T08:35:20.771Z,18.96
2019-04-21T08:37:03.968Z,18.94
2019-04-21T08:38:08.846Z,19.15
2019-04-21T08:39:01.635Z,19.24
2019-04-21T08:41:08.153Z,19.38
2019-04-21T08:42:06.319Z,19.38
2019-04-21T08:42:59.847Z,19.42
2019-04-21T08:44:40.661Z,19.50
2019-04-21T08:45:11.094Z,19.53
2019-04-21T08:46:05.451Z,19.53
2019-04-21T08:47:07.509Z,19.47
2019-04-21T08:48:16.969Z,19.50
2019-04-21T08:49:01.609Z,19.57
2019-04-21T08:50:09.548Z,19.64
2019-04-21T08:51:14.067Z,19.82
2019-04-21T08:52:28.361Z,19.95
2019-04-21T08:53:19.693Z,20.05
2019-04-21T08:54:11.877Z,20.07
2019-04-21T08:55:13.966Z,20.23
2019-04-21T08:56:10.847Z,20.20
2019-04-21T08:57:10.101Z,20.22
2019-04-21T09:03:06.506Z,20.66
2019-04-21T09:03:44.630Z,20.58
2019-04-21T09:04:39.252Z,20.69
2019-04-21T09:06:09.278Z,20.79
2019-04-21T09:07:45.933Z,20.83
2019-04-21T09:08:46.167Z,20.98
2019-04-21T09:09:43.465Z,21.06
2019-04-21T09:10:49.820Z,21.18
2019-04-21T09:11:44.472Z,21.34
2019-04-21T09:12:46.125Z,21.34
2019-04-21T09:13:40.948Z,21.49
2019-04-21T09:14:44.757Z,21.55
2019-04-21T09:15:42.525Z,21.63
2019-04-21T09:16:41.126Z,21.75
2019-04-21T09:18:04.870Z,21.91
2019-04-21T09:18:39.339Z,21.93
2019-04-21T09:19:51.809Z,21.96
2019-04-21T09:20:48.193Z,22.05
2019-04-21T09:21:45.422Z,21.89
2019-04-21T09:22:41.554Z,21.98
2019-04-21T09:24:14.762Z,21.99
2019-04-21T09:24:49.803Z,22.05
2019-04-21T09:25:49.482Z,22.15
2019-04-21T09:26:43.203Z,22.17
2019-04-21T09:27:45.436Z,22.24
2019-04-21T09:28:39.487Z,22.33
2019-04-21T09:29:36.095Z,22.35
2019-04-21T09:30:26.343Z,22.31
2019-04-21T09:31:48.495Z,22.30
2019-04-21T09:32:51.654Z,22.35
2019-04-21T09:33:36.718Z,22.20
2019-04-21T09:34:33.218Z,22.23
2019-04-21T09:35:27.048Z,22.27
2019-04-21T09:36:51.514Z,22.14
2019-04-21T09:37:41.839Z,22.01
2019-04-21T09:38:37.144Z,22.08
2019-04-21T09:39:29.314Z,22.02
2019-04-21T09:40:32.712Z,22.19
2019-04-21T09:41:28.306Z,22.20
2019-04-21T09:42:36.028Z,22.23
2019-04-21T09:43:35.726Z,22.14
2019-04-21T09:44:36.522Z,22.19
2019-04-21T09:45:28.554Z,22.20
2019-04-21T09:46:27.764Z,22.45
2019-04-21T09:47:35.143Z,22.49
2019-04-21T09:48:30.634Z,22.61
2019-04-21T09:49:33.903Z,22.42
2019-04-21T09:50:29.516Z,22.23
2019-04-21T09:51:28.265Z,22.15
2019-04-21T09:52:38.863Z,22.21
2019-04-21T09:53:34.521Z,22.29
2019-04-21T09:54:33.666Z,22.39
2019-04-21T09:55:45.511Z,22.51
2019-04-21T09:56:39.572Z,22.56
2019-04-21T09:57:38.228Z,22.69
2019-04-21T09:58:34.776Z,22.76
2019-04-21T09:59:33.620Z,22.84
2019-04-21T10:00:37.945Z,22.88
2019-04-21T10:02:05.634Z,22.79
2019-04-21T10:02:40.183Z,22.56
2019-04-21T10:03:37.079Z,22.44
2019-04-21T10:04:31.127Z,22.60
2019-04-21T10:05:31.591Z,22.51
2019-04-21T10:06:34.904Z,22.51
2019-04-21T10:07:35.652Z,22.51
2019-04-21T10:08:31.819Z,22.75
2019-04-21T10:11:24.469Z,22.86
2019-04-21T10:12:07.495Z,22.96
2019-04-21T10:13:23.156Z,23.04
2019-04-21T10:14:03.302Z,23.11
2019-04-21T10:16:41.346Z,23.18
2019-04-21T10:17:41.677Z,23.26
2019-04-21T10:18:35.756Z,23.42
2019-04-21T10:19:36.175Z,23.45
2019-04-21T10:20:36.344Z,23.72
2019-04-21T10:21:36.058Z,23.59
2019-04-21T10:22:35.138Z,23.71
2019-04-21T10:23:41.623Z,23.69
2019-04-21T10:24:36.278Z,23.52
2019-04-21T10:25:36.694Z,23.56
2019-04-21T10:26:35.632Z,23.49
2019-04-21T10:27:36.982Z,23.37
2019-04-21T10:28:37.180Z,23.26
2019-04-21T10:29:43.030Z,23.29
2019-04-21T10:30:36.371Z,23.23
2019-04-21T10:31:36.789Z,23.21
2019-04-21T10:32:36.494Z,23.23
2019-04-21T10:33:36.731Z,23.29
2019-04-21T10:34:41.228Z,23.47
2019-04-21T10:35:37.104Z,23.53
2019-04-21T10:36:37.237Z,23.71
2019-04-21T10:37:47.388Z,23.77
2019-04-21T10:38:43.226Z,23.86
2019-04-21T10:39:40.410Z,23.74
2019-04-21T10:40:39.238Z,23.64
2019-04-21T10:41:37.475Z,23.69
2019-04-21T10:42:37.410Z,23.42
2019-04-21T10:43:37.572Z,23.53
2019-04-21T10:44:45.095Z,23.62
2019-04-21T10:45:39.008Z,23.75
2019-04-21T10:46:38.198Z,23.71
2019-04-21T10:47:38.867Z,23.90
2019-04-21T10:48:38.271Z,24.02
2019-04-21T10:49:38.410Z,24.19
2019-04-21T10:52:15.550Z,24.44
2019-04-21T10:53:14.456Z,24.48
2019-04-21T10:54:13.661Z,24.51
2019-04-21T10:56:49.526Z,24.27
2019-04-21T10:57:44.878Z,24.06
2019-04-21T10:58:44.878Z,24.11
2019-04-21T10:59:47.871Z,24.24
2019-04-21T11:00:46.198Z,24.26
2019-04-21T11:01:45.380Z,24.31
2019-04-21T11:02:48.914Z,24.42
2019-04-21T11:03:46.723Z,24.53
2019-04-21T11:04:46.947Z,24.63
2019-04-21T11:05:45.881Z,24.64
2019-04-21T11:06:46.423Z,24.66
2019-04-21T11:08:01.194Z,24.74
2019-04-21T11:08:50.307Z,24.74
2019-04-21T11:09:46.417Z,24.61
2019-04-21T11:10:47.584Z,24.67
2019-04-21T11:11:49.664Z,24.67
2019-04-21T11:13:12.470Z,24.82
2019-04-21T11:13:46.487Z,24.59
2019-04-21T11:14:47.211Z,24.53
2019-04-21T11:15:47.563Z,24.61
2019-04-21T11:16:49.276Z,24.77
2019-04-21T11:17:48.847Z,24.80
2019-04-21T11:18:51.612Z,24.63
2019-04-21T11:19:48.593Z,24.89
2019-04-21T11:20:48.923Z,25.02
2019-04-21T11:21:49.209Z,24.98
2019-04-21T11:22:49.215Z,25.14
2019-04-21T11:23:54.259Z,25.22
2019-04-21T11:24:49.069Z,25.29
2019-04-21T11:25:49.504Z,25.26
2019-04-21T11:28:20.683Z,25.60
2019-04-21T11:29:47.445Z,25.82
2019-04-21T11:30:20.092Z,25.96
2019-04-21T11:31:20.932Z,26.12
2019-04-21T11:32:21.204Z,26.06
2019-04-21T11:33:21.307Z,26.03
2019-04-21T11:34:21.106Z,26.32
2019-04-21T11:35:46.039Z,26.23
2019-04-21T11:36:21.623Z,26.50
2019-04-21T11:37:21.967Z,26.90
2019-04-21T11:38:24.945Z,27.66
2019-04-21T11:39:31.624Z,27.99
2019-04-21T11:40:22.103Z,28.61
2019-04-21T11:41:46.020Z,28.83
2019-04-21T11:42:21.785Z,29.36
2019-04-21T11:43:22.085Z,29.76
2019-04-21T11:44:26.910Z,30.23
2019-04-21T11:45:22.150Z,30.67
2019-04-21T11:46:26.776Z,30.96
2019-04-21T11:47:22.746Z,31.42
2019-04-21T11:48:22.522Z,31.91
2019-04-21T11:49:22.521Z,31.75
2019-04-21T11:50:23.263Z,31.46
2019-04-21T11:51:47.521Z,31.71
2019-04-21T11:52:23.020Z,31.53
2019-04-21T11:53:23.220Z,31.69
2019-04-21T11:54:23.022Z,31.91
2019-04-21T11:57:24.903Z,32.69
2019-04-21T11:57:56.399Z,32.84
2019-04-21T11:58:55.305Z,33.03
2019-04-21T11:59:55.557Z,33.18
2019-04-21T12:00:55.736Z,33.22
2019-04-21T12:01:55.306Z,33.18
2019-04-21T12:02:59.577Z,33.43
2019-04-21T12:03:55.806Z,33.15
2019-04-21T12:04:57.140Z,33.37
2019-04-21T12:05:55.837Z,33.50
2019-04-21T12:06:57.722Z,33.41
2019-04-21T12:08:00.166Z,33.47
2019-04-21T12:08:59.310Z,33.75
2019-04-21T12:09:57.500Z,33.74
2019-04-21T12:10:57.707Z,34.12
2019-04-21T12:11:57.062Z,34.48
2019-04-21T12:12:57.136Z,34.69
2019-04-21T12:14:00.804Z,34.72
2019-04-21T12:14:57.642Z,34.16
2019-04-21T12:15:57.311Z,33.97
2019-04-21T12:16:57.304Z,33.03
2019-04-21T12:17:57.304Z,33.15
2019-04-21T12:19:23.304Z,33.40
2019-04-21T12:19:58.979Z,32.46
2019-04-21T12:20:57.804Z,32.54
2019-04-21T12:22:08.120Z,32.54
2019-04-21T12:22:58.324Z,32.58
2019-04-21T12:23:58.545Z,32.35
2019-04-21T12:25:23.303Z,32.63
2019-04-21T12:25:59.079Z,32.58
2019-04-21T12:27:00.019Z,32.35
2019-04-21T12:27:58.803Z,32.39
2019-04-21T12:28:59.689Z,32.53
2019-04-21T12:29:59.663Z,33.00
2019-04-21T12:31:03.387Z,33.45
2019-04-21T12:31:59.462Z,33.90
2019-04-21T12:33:00.115Z,33.94
2019-04-21T12:34:00.302Z,33.40
2019-04-21T12:34:59.848Z,33.87
2019-04-21T12:36:00.009Z,34.19
2019-04-21T12:37:04.622Z,34.48
2019-04-21T12:38:00.609Z,34.67
2019-04-21T12:39:03.008Z,34.91
2019-04-21T12:40:00.806Z,34.69
2019-04-21T12:41:00.474Z,34.94
2019-04-21T12:43:57.039Z,34.33
2019-04-21T12:44:41.254Z,34.01
2019-04-21T12:45:35.959Z,34.31
2019-04-21T12:46:36.241Z,34.45
2019-04-21T12:47:39.822Z,34.65
2019-04-21T12:48:36.247Z,34.80
2019-04-21T12:49:36.251Z,34.83
2019-04-21T12:50:37.674Z,34.45
2019-04-21T12:51:37.662Z,34.00
2019-04-21T12:52:37.869Z,34.03
2019-04-21T12:53:41.613Z,34.21
2019-04-21T12:54:59.587Z,34.14
2019-04-21T12:55:41.097Z,33.68
2019-04-21T12:56:37.943Z,33.89
2019-04-21T12:57:37.366Z,33.93
2019-04-21T12:58:37.747Z,34.36
2019-04-21T12:59:40.740Z,34.33
2019-04-21T13:00:38.855Z,34.31
2019-04-21T13:01:38.933Z,34.21
2019-04-21T13:02:38.239Z,34.06
2019-04-21T13:03:39.410Z,34.26
2019-04-21T13:04:42.239Z,34.48
2019-04-21T13:05:38.247Z,34.72
2019-04-21T13:06:39.442Z,34.48
2019-04-21T13:07:59.740Z,34.55
2019-04-21T13:08:45.560Z,33.93
2019-04-21T13:09:40.174Z,33.43
2019-04-21T13:11:04.430Z,33.20
2019-04-21T13:11:39.415Z,33.03
2019-04-21T13:12:39.239Z,33.34
2019-04-21T13:13:39.931Z,33.22
2019-04-21T13:14:39.970Z,33.02
2019-04-21T13:15:39.896Z,32.88
2019-04-21T13:17:05.552Z,33.06
2019-04-21T13:17:39.739Z,33.45
2019-04-21T13:19:01.240Z,33.87
2019-04-21T13:20:01.357Z,34.01
2019-04-21T13:20:40.238Z,34.48
2019-04-21T13:22:05.881Z,34.46
2019-04-21T13:22:41.945Z,34.46
2019-04-21T13:23:42.924Z,34.61
2019-04-21T13:24:42.020Z,35.05
2019-04-21T13:25:41.644Z,35.39
2019-04-21T13:26:47.206Z,35.96
2019-04-21T13:27:45.161Z,35.92
2019-04-21T13:28:42.463Z,35.40
2019-04-21T13:29:41.969Z,35.07
2019-04-21T13:30:44.414Z,35.44
2019-04-21T13:31:42.535Z,35.59
2019-04-21T13:32:45.228Z,35.22
2019-04-21T13:33:42.075Z,34.28
2019-04-21T13:35:03.435Z,33.77
2019-04-21T13:35:42.249Z,33.70
2019-04-21T13:36:43.460Z,33.62
2019-04-21T13:37:45.920Z,33.99
2019-04-21T13:39:06.289Z,33.96
2019-04-21T13:40:09.583Z,34.11
2019-04-21T13:40:56.961Z,34.31
2019-04-21T13:41:54.128Z,34.33
2019-04-21T13:42:51.661Z,34.45
2019-04-21T13:43:43.309Z,34.50
2019-04-21T13:44:44.490Z,34.73
2019-04-21T13:45:43.598Z,35.05
2019-04-21T13:46:45.064Z,35.22
2019-04-21T13:47:43.736Z,35.28
2019-04-21T13:48:48.389Z,34.84
2019-04-21T13:49:43.744Z,34.38
2019-04-21T13:51:05.236Z,34.83
2019-04-21T13:51:45.739Z,35.20
2019-04-21T13:52:44.903Z,35.73
2019-04-21T13:53:44.241Z,35.76
2019-04-21T13:54:47.752Z,35.84
2019-04-21T13:55:44.744Z,35.80
2019-04-21T13:56:44.976Z,35.74
2019-04-21T13:57:46.158Z,35.85
2019-04-21T13:58:46.317Z,35.55
2019-04-21T13:59:49.621Z,35.62
2019-04-21T14:00:45.602Z,35.66
2019-04-21T14:01:45.686Z,35.46
2019-04-21T14:02:47.177Z,35.83
2019-04-21T14:03:47.139Z,35.28
2019-04-21T14:04:45.735Z,35.06
2019-04-21T14:05:50.613Z,34.90
2019-04-21T14:06:46.234Z,35.02
2019-04-21T14:07:46.282Z,35.12
2019-04-21T14:08:47.153Z,34.65
2019-04-21T14:09:55.239Z,34.31
2019-04-21T14:10:47.306Z,34.34
2019-04-21T14:12:11.709Z,33.56
2019-04-21T14:12:46.788Z,33.24
2019-04-21T14:13:47.983Z,33.47
2019-04-21T14:14:48.313Z,33.70
2019-04-21T14:15:49.752Z,33.84
2019-04-21T14:18:24.635Z,34.15
2019-04-21T14:19:23.536Z,34.09
2019-04-21T14:22:20.109Z,34.03
2019-04-21T14:22:54.338Z,33.60
2019-04-21T14:23:55.962Z,33.62
2019-04-21T14:24:56.180Z,33.24
2019-04-21T14:25:55.601Z,32.53
2019-04-21T14:26:58.425Z,32.54
2019-04-21T14:27:56.453Z,32.58
2019-04-21T14:28:56.737Z,32.51
2019-04-21T14:29:55.602Z,32.29
2019-04-21T14:30:56.503Z,32.43
2019-04-21T14:31:56.095Z,32.44
2019-04-21T14:33:00.268Z,32.24
2019-04-21T14:33:56.281Z,31.85
2019-04-21T14:34:56.624Z,31.90
2019-04-21T14:35:56.831Z,31.91
2019-04-21T14:38:32.364Z,31.22
2019-04-21T14:39:28.202Z,30.64
2019-04-21T14:40:29.849Z,29.79
2019-04-21T14:41:28.504Z,28.89
2019-04-21T14:42:30.116Z,28.62
2019-04-21T14:43:52.972Z,28.40
2019-04-21T14:44:29.175Z,28.20
2019-04-21T14:47:00.889Z,28.17
2019-04-21T14:48:00.945Z,27.91
2019-04-21T14:49:05.429Z,27.68
2019-04-21T14:50:22.316Z,27.42
2019-04-21T14:51:00.407Z,27.40
2019-04-21T14:52:01.069Z,27.08
2019-04-21T14:53:03.171Z,27.03
2019-04-21T14:54:01.720Z,26.88
2019-04-21T14:55:04.899Z,27.02
2019-04-21T14:56:01.421Z,26.75
2019-04-21T14:57:01.405Z,26.64
2019-04-21T14:58:03.398Z,26.54
2019-04-21T14:59:02.681Z,26.13
2019-04-21T15:00:07.123Z,25.98
2019-04-21T15:01:23.919Z,26.01
2019-04-21T15:02:02.201Z,26.11
2019-04-21T15:03:01.899Z,26.20
2019-04-21T15:04:01.898Z,26.19
2019-04-21T15:05:04.028Z,26.23
2019-04-21T15:06:07.314Z,26.01
2019-04-21T15:07:03.355Z,25.90
2019-04-21T15:08:03.411Z,25.72
2019-04-21T15:09:03.068Z,25.75
2019-04-21T15:10:11.782Z,25.67
2019-04-21T15:11:03.234Z,25.69
2019-04-21T15:12:07.965Z,25.66
2019-04-21T15:13:03.584Z,25.72
2019-04-21T15:14:04.090Z,25.72
2019-04-21T15:15:03.401Z,25.63
2019-04-21T15:16:04.631Z,25.54
2019-04-21T15:17:05.066Z,25.29
2019-04-21T15:18:06.903Z,25.04
2019-04-21T15:19:04.443Z,25.07
2019-04-21T15:20:08.553Z,24.87
2019-04-21T15:21:05.586Z,24.66
2019-04-21T15:22:26.214Z,24.52
2019-04-21T15:23:30.514Z,24.45
2019-04-21T15:24:04.661Z,24.49
2019-04-21T15:25:26.082Z,24.66
2019-04-21T15:26:06.084Z,24.66
2019-04-21T15:27:27.372Z,24.84
2019-04-21T15:28:04.900Z,24.70
2019-04-21T15:32:14.770Z,24.37
2019-04-21T15:33:12.714Z,24.37
2019-04-21T15:36:08.990Z,24.06
2019-04-21T15:36:50.228Z,23.87
2019-04-21T15:37:46.831Z,23.97
2019-04-21T15:39:09.837Z,24.09
2019-04-21T15:39:50.959Z,23.99
2019-04-21T15:40:55.018Z,24.02
2019-04-21T15:41:48.326Z,23.94
2019-04-21T15:42:48.434Z,23.97
2019-04-21T15:43:48.849Z,24.00
2019-04-21T15:44:48.473Z,23.97
2019-04-21T15:45:52.901Z,23.93
2019-04-21T15:46:48.331Z,23.92
2019-04-21T15:47:49.810Z,23.87
2019-04-21T15:48:48.851Z,23.82
2019-04-21T15:49:56.913Z,23.92
2019-04-21T15:50:50.312Z,23.84
2019-04-21T15:51:51.917Z,23.81
2019-04-21T15:52:49.766Z,23.79
2019-04-21T15:53:49.932Z,23.72
2019-04-21T15:54:50.376Z,23.64
2019-04-21T15:55:50.655Z,23.62
2019-04-21T15:56:53.337Z,23.67
2019-04-21T15:57:49.330Z,23.74
2019-04-21T15:58:50.579Z,23.72
2019-04-21T16:01:42.812Z,23.62
2019-04-21T16:02:24.712Z,23.59
2019-04-21T16:03:22.581Z,23.54
2019-04-21T16:04:22.910Z,23.57
2019-04-21T16:05:42.738Z,23.39
2019-04-21T16:06:21.711Z,23.39
2019-04-21T16:07:22.351Z,23.37
2019-04-21T16:08:27.004Z,23.38
2019-04-21T16:09:25.895Z,23.45
2019-04-21T16:10:34.301Z,23.44
2019-04-21T16:11:22.235Z,23.45
2019-04-21T16:12:45.627Z,23.49
2019-04-21T16:13:23.664Z,23.52
2019-04-21T16:14:27.095Z,23.49
2019-04-21T16:15:22.965Z,23.45
2019-04-21T16:16:45.386Z,23.54
2019-04-21T16:17:45.529Z,23.35
2019-04-21T16:18:44.212Z,23.18
2019-04-21T16:19:48.225Z,23.11
2019-04-21T16:20:45.888Z,23.12
2019-04-21T16:21:24.238Z,23.12
2019-04-21T16:22:44.713Z,23.19
2019-04-21T16:23:44.713Z,23.23
2019-04-21T16:24:46.045Z,23.25
2019-04-21T16:25:50.659Z,23.29
2019-04-21T16:26:24.601Z,23.41
2019-04-21T16:27:25.581Z,23.44
2019-04-21T16:28:46.895Z,23.38
2019-04-21T16:29:25.012Z,23.45
2019-04-21T16:30:25.892Z,23.42
2019-04-21T16:31:49.213Z,23.49
2019-04-21T16:32:46.213Z,23.49
2019-04-21T16:33:25.216Z,23.42
2019-04-21T16:34:53.619Z,23.34
2019-04-21T16:35:26.654Z,23.34
2019-04-21T16:36:29.579Z,23.31
2019-04-21T16:37:27.802Z,23.18
2019-04-21T16:38:25.901Z,23.07
2019-04-21T16:39:25.714Z,22.85
2019-04-21T16:40:27.494Z,22.79
2019-04-21T16:41:30.216Z,22.88
2019-04-21T16:42:26.215Z,22.79
2019-04-21T16:43:27.043Z,22.85
2019-04-21T16:44:48.901Z,22.79
2019-04-21T16:45:26.715Z,22.75
2019-04-21T16:46:51.813Z,22.67
2019-04-21T16:47:26.714Z,22.63
2019-04-21T16:48:49.355Z,22.67
2019-04-21T16:49:27.535Z,22.70
2019-04-21T16:50:27.967Z,22.64
2019-04-21T16:51:29.648Z,22.64
2019-04-21T16:52:32.114Z,22.60
2019-04-21T16:53:50.150Z,22.67
2019-04-21T16:54:49.698Z,22.74
2019-04-21T16:55:28.859Z,22.67
2019-04-21T16:56:50.066Z,22.57
2019-04-21T16:57:31.714Z,22.52
2019-04-21T16:58:30.745Z,22.39
2019-04-21T16:59:28.712Z,22.42
2019-04-21T17:02:00.636Z,22.35
2019-04-21T17:03:04.300Z,22.44
2019-04-21T17:04:00.342Z,22.38
2019-04-21T17:05:00.531Z,22.39
2019-04-21T17:06:03.156Z,22.45
2019-04-21T17:07:00.968Z,22.38
2019-04-21T17:08:05.895Z,22.35
2019-04-21T17:09:01.071Z,22.31
2019-04-21T17:10:02.415Z,22.24
2019-04-21T17:11:10.786Z,22.23
2019-04-21T17:12:22.780Z,22.14
2019-04-21T17:13:02.280Z,22.05
2019-04-21T17:14:24.734Z,22.06
2019-04-21T17:15:37.620Z,22.15
2019-04-21T17:16:31.957Z,22.15
2019-04-21T17:17:26.803Z,22.17
2019-04-21T17:18:39.513Z,22.08
2019-04-21T17:19:13.210Z,22.08
2019-04-21T17:20:21.556Z,22.14
2019-04-21T17:21:05.690Z,22.11
2019-04-21T17:22:03.786Z,22.17
2019-04-21T17:23:03.920Z,22.11
2019-04-21T17:24:02.501Z,22.11
2019-04-21T17:25:06.611Z,22.02
2019-04-21T17:26:03.393Z,22.05
2019-04-21T17:27:03.006Z,21.91
2019-04-21T17:28:03.584Z,21.93
2019-04-21T17:29:03.001Z,21.86
2019-04-21T17:30:06.572Z,21.83
2019-04-21T17:31:04.724Z,21.74
2019-04-21T17:32:07.409Z,21.68
2019-04-21T17:33:05.695Z,21.59
2019-04-21T17:34:28.832Z,21.52
2019-04-21T17:38:12.029Z,21.28
2019-04-21T17:39:13.141Z,21.28
2019-04-21T17:40:15.637Z,21.30
2019-04-21T17:41:21.833Z,21.33
2019-04-21T17:42:20.543Z,21.18
2019-04-21T17:43:14.762Z,21.11
2019-04-21T17:44:11.184Z,20.98
2019-04-21T17:45:37.198Z,20.90
2019-04-21T17:46:13.554Z,20.87
2019-04-21T17:47:22.682Z,20.90
2019-04-21T17:48:16.163Z,20.82
2019-04-21T17:49:12.822Z,20.63
2019-04-21T17:50:37.654Z,20.60
2019-04-21T17:51:13.612Z,20.51
2019-04-21T17:52:16.259Z,20.37
2019-04-21T17:53:14.907Z,20.41
2019-04-21T17:54:39.694Z,20.34
2019-04-21T17:55:18.389Z,20.31
2019-04-21T17:56:41.263Z,20.20
2019-04-21T17:57:34.867Z,20.22
2019-04-21T17:58:28.055Z,20.17
2019-04-21T17:59:44.682Z,20.08
2019-04-21T18:00:52.057Z,20.04
2019-04-21T18:01:37.317Z,19.89
2019-04-21T18:02:56.256Z,19.92
2019-04-21T18:03:46.163Z,19.85
2019-04-21T18:04:30.721Z,19.79
2019-04-21T18:05:32.201Z,19.76
2019-04-21T18:06:36.325Z,19.71
2019-04-21T18:07:49.176Z,19.75
2019-04-21T18:08:37.145Z,19.68
2019-04-21T18:09:40.478Z,19.57
2019-04-21T18:10:31.631Z,19.61
2019-04-21T18:11:37.253Z,19.55
2019-04-21T18:12:33.569Z,19.55
2019-04-21T18:13:19.220Z,19.64
2019-04-21T18:14:15.931Z,19.58
2019-04-21T18:15:32.172Z,19.55
2019-04-21T18:16:26.728Z,19.46
2019-04-21T18:17:46.845Z,19.49
2019-04-21T18:18:16.711Z,19.46
2019-04-21T18:19:20.570Z,19.40
2019-04-21T18:20:15.685Z,19.38
2019-04-21T18:21:16.724Z,19.32
2019-04-21T18:22:43.197Z,19.21
2019-04-21T18:23:37.901Z,19.27
2019-04-21T18:24:22.452Z,19.09
2019-04-21T18:25:28.026Z,18.99
2019-04-21T18:26:34.584Z,19.05
2019-04-21T18:27:26.099Z,18.96
2019-04-21T18:28:16.768Z,18.94
2019-04-21T18:31:12.400Z,18.83
2019-04-21T18:32:17.613Z,18.71
2019-04-21T18:32:53.696Z,18.62
2019-04-21T18:33:58.985Z,18.65
2019-04-21T18:35:00.449Z,18.56
2019-04-21T18:36:20.258Z,18.57
2019-04-21T18:36:53.574Z,18.36
2019-04-21T18:38:23.741Z,18.39
2019-04-21T18:39:32.538Z,18.36
2019-04-21T18:40:05.721Z,18.32
2019-04-21T18:40:57.937Z,18.14
2019-04-21T18:42:09.347Z,18.07
2019-04-21T18:43:24.902Z,17.99
2019-04-21T18:44:23.745Z,17.92
2019-04-21T18:45:34.458Z,17.91
2019-04-21T18:46:14.881Z,17.79
2019-04-21T18:47:16.374Z,17.68
2019-04-21T18:48:05.096Z,17.70
2019-04-21T18:48:57.183Z,17.62
2019-04-21T18:49:54.451Z,17.49
2019-04-21T18:51:02.465Z,17.46
2019-04-21T18:52:09.313Z,17.42
2019-04-21T18:53:04.857Z,17.27
2019-04-21T18:54:15.152Z,17.30
2019-04-21T18:55:05.225Z,17.09
2019-04-21T18:56:00.366Z,17.12
2019-04-21T18:57:04.385Z,16.99
2019-04-21T18:57:59.067Z,16.85
2019-04-21T18:58:55.912Z,16.82
2019-04-21T18:59:55.342Z,16.75
2019-04-21T19:01:03.209Z,16.72
2019-04-21T19:02:18.983Z,16.57
2019-04-21T19:02:58.317Z,16.51
2019-04-21T19:04:00.312Z,16.48
2019-04-21T19:05:03.082Z,16.47
2019-04-21T19:06:01.893Z,16.40
2019-04-21T19:07:09.394Z,16.51
2019-04-21T19:08:14.920Z,16.30
2019-04-21T19:09:14.970Z,16.26
2019-04-21T19:10:22.362Z,16.22
2019-04-21T19:13:29.081Z,15.96
2019-04-21T19:13:51.328Z,15.95
2019-04-21T19:14:46.908Z,15.98
2019-04-21T19:16:08.317Z,15.93
2019-04-21T19:17:10.950Z,15.91
2019-04-21T19:18:27.768Z,15.92
2019-04-21T19:18:47.081Z,15.91
2019-04-21T19:19:59.289Z,15.93
2019-04-21T19:22:17.076Z,15.77
2019-04-21T19:23:21.524Z,15.71
2019-04-21T19:24:24.309Z,15.46
2019-04-21T19:25:23.905Z,15.43
2019-04-21T19:26:42.476Z,15.41
2019-04-21T19:28:19.558Z,15.43
2019-04-21T19:29:24.114Z,15.37
2019-04-21T19:30:49.666Z,15.34
2019-04-21T19:31:46.486Z,15.25
2019-04-21T19:32:19.906Z,15.22
2019-04-21T19:33:14.141Z,15.19
2019-04-21T19:34:26.779Z,15.15
2019-04-21T19:35:03.357Z,15.16
2019-04-21T19:36:05.621Z,15.03
2019-04-21T19:37:09.334Z,15.01
2019-04-21T19:38:07.080Z,15.00
2019-04-21T19:39:08.266Z,15.00
2019-04-21T19:40:40.493Z,14.94
2019-04-21T19:41:20.985Z,14.97
2019-04-21T19:43:52.179Z,14.94
2019-04-21T19:44:52.205Z,15.00
2019-04-21T19:45:46.416Z,14.91
2019-04-21T19:46:57.142Z,14.75
2019-04-21T19:47:52.711Z,14.78
2019-04-21T19:49:05.504Z,14.80
2019-04-21T19:49:55.650Z,14.82
2019-04-21T19:50:50.268Z,14.74
2019-04-21T19:51:51.452Z,14.78
2019-04-21T19:52:46.607Z,14.74
2019-04-21T19:53:44.338Z,14.59
2019-04-21T19:54:39.702Z,14.54
2019-04-21T19:55:36.286Z,14.52
2019-04-21T19:56:38.650Z,14.44
2019-04-21T19:57:35.141Z,14.45
2019-04-21T19:58:40.034Z,14.44
2019-04-21T20:00:00.383Z,14.52
2019-04-21T20:00:36.703Z,14.34
2019-04-21T20:02:00.650Z,14.45
2019-04-21T20:02:36.464Z,14.34
2019-04-21T20:03:37.101Z,14.35
2019-04-21T20:05:03.100Z,14.36
2019-04-21T20:05:45.370Z,14.21
2019-04-21T20:06:47.686Z,14.21
2019-04-21T20:09:27.860Z,13.93
2019-04-21T20:10:44.349Z,13.88
2019-04-21T20:11:32.257Z,13.84
2019-04-21T20:12:35.560Z,13.84
2019-04-21T20:13:48.749Z,13.79
2019-04-21T20:14:46.631Z,13.75
2019-04-21T20:15:52.294Z,13.81
2019-04-21T20:16:34.983Z,13.83
2019-04-21T20:17:31.274Z,13.86
2019-04-21T20:18:26.168Z,13.83
2019-04-21T20:19:19.676Z,13.76
2019-04-21T20:20:15.252Z,13.81
2019-04-21T20:21:14.701Z,13.73
2019-04-21T20:22:12.700Z,13.76
2019-04-21T20:23:24.991Z,13.65
2019-04-21T20:24:16.103Z,13.71
2019-04-21T20:25:17.558Z,13.73
2019-04-21T20:26:14.054Z,13.75
2019-04-21T20:27:20.001Z,13.69
2019-04-21T20:28:27.201Z,13.80
2019-04-21T20:29:42.055Z,13.73
2019-04-21T20:31:30.076Z,13.69
2019-04-21T20:32:38.185Z,13.75
2019-04-21T20:33:48.843Z,13.79
2019-04-21T20:34:38.612Z,13.71
2019-04-21T20:35:40.459Z,13.62
2019-04-21T20:36:36.538Z,13.59
2019-04-21T20:37:33.136Z,13.54
2019-04-21T20:38:26.439Z,13.51
2019-04-21T20:39:21.359Z,13.66
2019-04-21T20:40:30.810Z,13.59
2019-04-21T20:41:29.728Z,13.54
2019-04-21T20:42:34.577Z,13.44
2019-04-21T20:43:38.725Z,13.46
2019-04-21T20:44:31.331Z,13.48
2019-04-21T20:45:34.960Z,13.43
2019-04-21T20:46:33.733Z,13.39
2019-04-21T20:47:25.529Z,13.38
2019-04-21T20:48:29.910Z,13.51
2019-04-21T20:49:27.531Z,13.39